Аэропорт: Брянск. Брянск

ICAO: UUBP

METAR:
Информация по данной станции не доступна
METAR:
2019-09-21 13:54:00
TAF UUBP 211354Z 2115/2124 22006MPS 4000 -SHRA BR BKN007 BKN010CB